sensor_id;sensor_type;location;lat;lon;timestamp;P1;durP1;ratioP1;P2;durP2;ratioP2
31004;SDS011;17676;52.254;4.490;2023-06-26T00:01:37;6.28;;;3.95;;
31004;SDS011;17676;52.254;4.490;2023-06-26T00:04:04;5.57;;;3.92;;
31004;SDS011;17676;52.254;4.490;2023-06-26T00:06:30;4.18;;;3.78;;
31004;SDS011;17676;52.254;4.490;2023-06-26T00:08:56;5.63;;;4.50;;
31004;SDS011;17676;52.254;4.490;2023-06-26T00:11:23;10.70;;;4.38;;
31004;SDS011;17676;52.254;4.490;2023-06-26T00:13:50;6.53;;;4.50;;
31004;SDS011;17676;52.254;4.490;2023-06-26T00:16:15;8.60;;;4.75;;
31004;SDS011;17676;52.254;4.490;2023-06-26T00:18:41;9.80;;;5.53;;
31004;SDS011;17676;52.254;4.490;2023-06-26T00:21:06;5.95;;;4.72;;
31004;SDS011;17676;52.254;4.490;2023-06-26T00:23:32;9.48;;;5.07;;
31004;SDS011;17676;52.254;4.490;2023-06-26T00:26:02;10.70;;;4.60;;
31004;SDS011;17676;52.254;4.490;2023-06-26T00:28:29;9.50;;;5.13;;
31004;SDS011;17676;52.254;4.490;2023-06-26T00:30:54;8.75;;;4.38;;
31004;SDS011;17676;52.254;4.490;2023-06-26T00:33:20;7.65;;;4.80;;
31004;SDS011;17676;52.254;4.490;2023-06-26T00:35:45;9.27;;;4.78;;
31004;SDS011;17676;52.254;4.490;2023-06-26T00:38:10;8.07;;;3.92;;
31004;SDS011;17676;52.254;4.490;2023-06-26T00:40:36;5.30;;;4.05;;
31004;SDS011;17676;52.254;4.490;2023-06-26T00:43:01;8.02;;;3.33;;
31004;SDS011;17676;52.254;4.490;2023-06-26T00:45:28;9.68;;;4.43;;
31004;SDS011;17676;52.254;4.490;2023-06-26T00:47:54;8.70;;;4.05;;
31004;SDS011;17676;52.254;4.490;2023-06-26T00:50:20;6.13;;;3.92;;
31004;SDS011;17676;52.254;4.490;2023-06-26T00:52:45;11.05;;;3.90;;
31004;SDS011;17676;52.254;4.490;2023-06-26T00:55:11;10.35;;;3.72;;
31004;SDS011;17676;52.254;4.490;2023-06-26T00:57:37;9.63;;;3.70;;
31004;SDS011;17676;52.254;4.490;2023-06-26T01:00:03;8.13;;;3.92;;
31004;SDS011;17676;52.254;4.490;2023-06-26T01:02:29;8.52;;;3.63;;
31004;SDS011;17676;52.254;4.490;2023-06-26T01:05:01;11.43;;;4.07;;
31004;SDS011;17676;52.254;4.490;2023-06-26T01:07:32;10.18;;;4.50;;
31004;SDS011;17676;52.254;4.490;2023-06-26T01:10:01;7.82;;;3.28;;
31004;SDS011;17676;52.254;4.490;2023-06-26T01:12:31;11.38;;;3.83;;
31004;SDS011;17676;52.254;4.490;2023-06-26T01:14:58;9.10;;;3.40;;
31004;SDS011;17676;52.254;4.490;2023-06-26T01:17:24;15.10;;;3.85;;
31004;SDS011;17676;52.254;4.490;2023-06-26T01:19:52;10.82;;;3.63;;
31004;SDS011;17676;52.254;4.490;2023-06-26T01:22:19;11.57;;;3.72;;
31004;SDS011;17676;52.254;4.490;2023-06-26T01:25:02;14.27;;;4.13;;
31004;SDS011;17676;52.254;4.490;2023-06-26T01:27:37;10.23;;;3.13;;
31004;SDS011;17676;52.254;4.490;2023-06-26T01:30:03;11.13;;;3.85;;
31004;SDS011;17676;52.254;4.490;2023-06-26T01:32:31;15.30;;;3.47;;
31004;SDS011;17676;52.254;4.490;2023-06-26T01:34:59;10.38;;;3.63;;
31004;SDS011;17676;52.254;4.490;2023-06-26T01:37:26;16.42;;;4.25;;
31004;SDS011;17676;52.254;4.490;2023-06-26T01:39:51;16.35;;;4.60;;
31004;SDS011;17676;52.254;4.490;2023-06-26T01:42:17;12.32;;;4.10;;
31004;SDS011;17676;52.254;4.490;2023-06-26T01:44:44;17.00;;;4.38;;
31004;SDS011;17676;52.254;4.490;2023-06-26T01:47:12;16.08;;;4.30;;
31004;SDS011;17676;52.254;4.490;2023-06-26T01:50:05;17.63;;;4.55;;
31004;SDS011;17676;52.254;4.490;2023-06-26T01:52:59;13.57;;;3.80;;
31004;SDS011;17676;52.254;4.490;2023-06-26T01:55:38;17.05;;;3.67;;
31004;SDS011;17676;52.254;4.490;2023-06-26T01:58:08;15.88;;;5.22;;
31004;SDS011;17676;52.254;4.490;2023-06-26T02:00:34;24.67;;;5.30;;
31004;SDS011;17676;52.254;4.490;2023-06-26T02:03:02;14.32;;;4.57;;
31004;SDS011;17676;52.254;4.490;2023-06-26T02:05:30;18.42;;;4.93;;
31004;SDS011;17676;52.254;4.490;2023-06-26T02:07:56;23.75;;;6.45;;
31004;SDS011;17676;52.254;4.490;2023-06-26T02:10:21;18.23;;;5.20;;
31004;SDS011;17676;52.254;4.490;2023-06-26T02:12:47;13.90;;;4.00;;
31004;SDS011;17676;52.254;4.490;2023-06-26T02:15:12;20.52;;;5.10;;
31004;SDS011;17676;52.254;4.490;2023-06-26T02:17:38;23.88;;;5.25;;
31004;SDS011;17676;52.254;4.490;2023-06-26T02:20:04;18.00;;;5.38;;
31004;SDS011;17676;52.254;4.490;2023-06-26T02:22:31;26.55;;;5.47;;
31004;SDS011;17676;52.254;4.490;2023-06-26T02:24:56;22.52;;;4.80;;
31004;SDS011;17676;52.254;4.490;2023-06-26T02:27:22;20.73;;;5.88;;
31004;SDS011;17676;52.254;4.490;2023-06-26T02:29:48;20.13;;;5.70;;
31004;SDS011;17676;52.254;4.490;2023-06-26T02:32:13;17.63;;;4.40;;
31004;SDS011;17676;52.254;4.490;2023-06-26T02:34:39;17.35;;;4.55;;
31004;SDS011;17676;52.254;4.490;2023-06-26T02:37:04;14.25;;;5.28;;
31004;SDS011;17676;52.254;4.490;2023-06-26T02:39:32;19.73;;;5.45;;
31004;SDS011;17676;52.254;4.490;2023-06-26T02:41:59;22.65;;;5.47;;
31004;SDS011;17676;52.254;4.490;2023-06-26T02:44:24;18.88;;;5.10;;
31004;SDS011;17676;52.254;4.490;2023-06-26T02:46:50;17.70;;;5.57;;
31004;SDS011;17676;52.254;4.490;2023-06-26T02:49:16;17.10;;;4.47;;
31004;SDS011;17676;52.254;4.490;2023-06-26T02:51:41;14.43;;;4.22;;
31004;SDS011;17676;52.254;4.490;2023-06-26T02:54:07;17.45;;;3.78;;
31004;SDS011;17676;52.254;4.490;2023-06-26T02:56:32;11.90;;;4.32;;
31004;SDS011;17676;52.254;4.490;2023-06-26T02:58:58;11.20;;;4.20;;
31004;SDS011;17676;52.254;4.490;2023-06-26T03:01:23;12.68;;;4.05;;
31004;SDS011;17676;52.254;4.490;2023-06-26T03:03:49;12.75;;;4.18;;
31004;SDS011;17676;52.254;4.490;2023-06-26T03:06:15;8.82;;;3.35;;
31004;SDS011;17676;52.254;4.490;2023-06-26T03:08:41;11.45;;;4.10;;
31004;SDS011;17676;52.254;4.490;2023-06-26T03:11:07;12.15;;;3.40;;
31004;SDS011;17676;52.254;4.490;2023-06-26T03:13:34;11.95;;;3.00;;
31004;SDS011;17676;52.254;4.490;2023-06-26T03:16:01;5.90;;;2.85;;
31004;SDS011;17676;52.254;4.490;2023-06-26T03:18:26;5.47;;;2.70;;
31004;SDS011;17676;52.254;4.490;2023-06-26T03:20:52;7.50;;;2.17;;
31004;SDS011;17676;52.254;4.490;2023-06-26T03:23:21;4.00;;;2.33;;
31004;SDS011;17676;52.254;4.490;2023-06-26T03:25:47;6.07;;;1.83;;
31004;SDS011;17676;52.254;4.490;2023-06-26T03:28:13;6.18;;;2.03;;
31004;SDS011;17676;52.254;4.490;2023-06-26T03:30:39;7.40;;;2.10;;
31004;SDS011;17676;52.254;4.490;2023-06-26T03:33:04;6.47;;;2.45;;
31004;SDS011;17676;52.254;4.490;2023-06-26T03:35:30;6.22;;;2.13;;
31004;SDS011;17676;52.254;4.490;2023-06-26T03:37:55;4.65;;;1.58;;
31004;SDS011;17676;52.254;4.490;2023-06-26T03:40:22;4.30;;;1.73;;
31004;SDS011;17676;52.254;4.490;2023-06-26T03:42:48;4.93;;;2.28;;
31004;SDS011;17676;52.254;4.490;2023-06-26T03:45:13;4.50;;;1.75;;
31004;SDS011;17676;52.254;4.490;2023-06-26T03:47:39;2.50;;;1.73;;
31004;SDS011;17676;52.254;4.490;2023-06-26T03:50:05;8.25;;;2.20;;
31004;SDS011;17676;52.254;4.490;2023-06-26T03:52:30;6.47;;;1.65;;
31004;SDS011;17676;52.254;4.490;2023-06-26T03:54:59;8.45;;;1.95;;
31004;SDS011;17676;52.254;4.490;2023-06-26T03:57:24;2.55;;;1.50;;
31004;SDS011;17676;52.254;4.490;2023-06-26T03:59:50;8.43;;;2.08;;
31004;SDS011;17676;52.254;4.490;2023-06-26T04:02:16;4.43;;;1.70;;
31004;SDS011;17676;52.254;4.490;2023-06-26T04:04:42;7.60;;;1.80;;
31004;SDS011;17676;52.254;4.490;2023-06-26T04:07:08;4.53;;;1.63;;
31004;SDS011;17676;52.254;4.490;2023-06-26T04:09:34;5.97;;;1.50;;
31004;SDS011;17676;52.254;4.490;2023-06-26T04:11:59;4.95;;;1.55;;
31004;SDS011;17676;52.254;4.490;2023-06-26T04:14:25;6.35;;;1.40;;
31004;SDS011;17676;52.254;4.490;2023-06-26T04:16:50;6.70;;;1.42;;
31004;SDS011;17676;52.254;4.490;2023-06-26T04:19:16;4.43;;;1.50;;
31004;SDS011;17676;52.254;4.490;2023-06-26T04:21:41;3.67;;;1.35;;
31004;SDS011;17676;52.254;4.490;2023-06-26T04:24:07;4.95;;;1.38;;
31004;SDS011;17676;52.254;4.490;2023-06-26T04:26:32;8.07;;;1.42;;
31004;SDS011;17676;52.254;4.490;2023-06-26T04:28:58;6.28;;;1.70;;
31004;SDS011;17676;52.254;4.490;2023-06-26T04:31:25;6.75;;;1.58;;
31004;SDS011;17676;52.254;4.490;2023-06-26T04:33:51;7.20;;;1.40;;
31004;SDS011;17676;52.254;4.490;2023-06-26T04:36:18;3.45;;;1.10;;
31004;SDS011;17676;52.254;4.490;2023-06-26T04:38:43;3.17;;;1.10;;
31004;SDS011;17676;52.254;4.490;2023-06-26T04:41:08;7.03;;;1.00;;
31004;SDS011;17676;52.254;4.490;2023-06-26T04:43:34;4.10;;;1.70;;
31004;SDS011;17676;52.254;4.490;2023-06-26T04:46:01;5.40;;;1.30;;
31004;SDS011;17676;52.254;4.490;2023-06-26T04:48:27;6.32;;;1.42;;
31004;SDS011;17676;52.254;4.490;2023-06-26T04:50:53;4.30;;;1.10;;
31004;SDS011;17676;52.254;4.490;2023-06-26T04:53:22;6.72;;;1.20;;
31004;SDS011;17676;52.254;4.490;2023-06-26T04:55:51;4.43;;;1.33;;
31004;SDS011;17676;52.254;4.490;2023-06-26T04:58:17;3.50;;;0.90;;
31004;SDS011;17676;52.254;4.490;2023-06-26T05:00:43;3.33;;;0.98;;
31004;SDS011;17676;52.254;4.490;2023-06-26T05:03:09;4.28;;;1.00;;
31004;SDS011;17676;52.254;4.490;2023-06-26T05:05:36;6.00;;;1.25;;
31004;SDS011;17676;52.254;4.490;2023-06-26T05:08:12;3.45;;;1.55;;
31004;SDS011;17676;52.254;4.490;2023-06-26T05:10:40;4.07;;;1.38;;
31004;SDS011;17676;52.254;4.490;2023-06-26T05:13:05;5.32;;;0.98;;
31004;SDS011;17676;52.254;4.490;2023-06-26T05:15:31;3.40;;;1.10;;
31004;SDS011;17676;52.254;4.490;2023-06-26T05:17:56;3.83;;;1.13;;
31004;SDS011;17676;52.254;4.490;2023-06-26T05:20:22;5.15;;;1.25;;
31004;SDS011;17676;52.254;4.490;2023-06-26T05:22:48;4.00;;;1.60;;
31004;SDS011;17676;52.254;4.490;2023-06-26T05:25:14;4.57;;;1.55;;
31004;SDS011;17676;52.254;4.490;2023-06-26T05:27:41;7.20;;;1.60;;
31004;SDS011;17676;52.254;4.490;2023-06-26T05:30:06;4.35;;;1.45;;
31004;SDS011;17676;52.254;4.490;2023-06-26T05:32:33;3.88;;;0.75;;
31004;SDS011;17676;52.254;4.490;2023-06-26T05:35:01;2.92;;;0.73;;
31004;SDS011;17676;52.254;4.490;2023-06-26T05:37:28;4.63;;;1.17;;
31004;SDS011;17676;52.254;4.490;2023-06-26T05:39:55;5.15;;;1.02;;
31004;SDS011;17676;52.254;4.490;2023-06-26T05:42:21;5.18;;;0.82;;
31004;SDS011;17676;52.254;4.490;2023-06-26T05:44:47;8.18;;;1.00;;
31004;SDS011;17676;52.254;4.490;2023-06-26T05:47:12;3.85;;;0.90;;
31004;SDS011;17676;52.254;4.490;2023-06-26T05:49:38;5.63;;;1.30;;
31004;SDS011;17676;52.254;4.490;2023-06-26T05:52:03;1.75;;;0.70;;
31004;SDS011;17676;52.254;4.490;2023-06-26T05:54:29;3.92;;;0.60;;
31004;SDS011;17676;52.254;4.490;2023-06-26T05:56:56;4.70;;;0.60;;
31004;SDS011;17676;52.254;4.490;2023-06-26T05:59:24;3.80;;;0.47;;
31004;SDS011;17676;52.254;4.490;2023-06-26T06:01:51;7.25;;;0.50;;
31004;SDS011;17676;52.254;4.490;2023-06-26T06:04:16;4.88;;;0.70;;
31004;SDS011;17676;52.254;4.490;2023-06-26T06:06:42;8.52;;;1.48;;
31004;SDS011;17676;52.254;4.490;2023-06-26T06:09:07;4.82;;;0.60;;
31004;SDS011;17676;52.254;4.490;2023-06-26T06:11:33;1.25;;;0.50;;
31004;SDS011;17676;52.254;4.490;2023-06-26T06:13:58;5.13;;;0.45;;
31004;SDS011;17676;52.254;4.490;2023-06-26T06:16:25;1.65;;;0.50;;
31004;SDS011;17676;52.254;4.490;2023-06-26T06:18:50;5.13;;;0.55;;
31004;SDS011;17676;52.254;4.490;2023-06-26T06:21:16;5.72;;;0.40;;
31004;SDS011;17676;52.254;4.490;2023-06-26T06:23:41;3.25;;;0.30;;
31004;SDS011;17676;52.254;4.490;2023-06-26T06:26:07;4.25;;;0.30;;
31004;SDS011;17676;52.254;4.490;2023-06-26T06:28:32;2.65;;;0.35;;
31004;SDS011;17676;52.254;4.490;2023-06-26T06:31:00;3.50;;;0.50;;
31004;SDS011;17676;52.254;4.490;2023-06-26T06:33:26;5.32;;;0.68;;
31004;SDS011;17676;52.254;4.490;2023-06-26T06:35:51;4.70;;;0.40;;
31004;SDS011;17676;52.254;4.490;2023-06-26T06:38:17;6.95;;;0.40;;
31004;SDS011;17676;52.254;4.490;2023-06-26T06:40:42;4.93;;;0.50;;
31004;SDS011;17676;52.254;4.490;2023-06-26T06:43:08;0.80;;;0.20;;
31004;SDS011;17676;52.254;4.490;2023-06-26T06:45:33;2.20;;;0.50;;
31004;SDS011;17676;52.254;4.490;2023-06-26T06:47:59;6.13;;;0.20;;
31004;SDS011;17676;52.254;4.490;2023-06-26T06:50:24;5.68;;;0.50;;
31004;SDS011;17676;52.254;4.490;2023-06-26T06:52:50;5.40;;;0.30;;
31004;SDS011;17676;52.254;4.490;2023-06-26T06:55:15;5.40;;;0.30;;
31004;SDS011;17676;52.254;4.490;2023-06-26T06:57:41;3.03;;;0.25;;
31004;SDS011;17676;52.254;4.490;2023-06-26T07:00:07;5.38;;;0.40;;
31004;SDS011;17676;52.254;4.490;2023-06-26T07:02:35;3.70;;;0.20;;
31004;SDS011;17676;52.254;4.490;2023-06-26T07:05:02;2.22;;;0.20;;
31004;SDS011;17676;52.254;4.490;2023-06-26T07:07:29;2.47;;;0.32;;
31004;SDS011;17676;52.254;4.490;2023-06-26T07:09:57;3.13;;;0.50;;
31004;SDS011;17676;52.254;4.490;2023-06-26T07:12:23;2.60;;;0.30;;
31004;SDS011;17676;52.254;4.490;2023-06-26T07:14:49;4.22;;;0.40;;
31004;SDS011;17676;52.254;4.490;2023-06-26T07:17:15;3.25;;;0.60;;
31004;SDS011;17676;52.254;4.490;2023-06-26T07:19:40;3.65;;;0.30;;
31004;SDS011;17676;52.254;4.490;2023-06-26T07:22:06;4.07;;;0.38;;
31004;SDS011;17676;52.254;4.490;2023-06-26T07:24:31;5.05;;;0.28;;
31004;SDS011;17676;52.254;4.490;2023-06-26T07:26:57;3.70;;;0.20;;
31004;SDS011;17676;52.254;4.490;2023-06-26T07:29:23;1.55;;;0.20;;
31004;SDS011;17676;52.254;4.490;2023-06-26T07:31:48;2.65;;;0.30;;
31004;SDS011;17676;52.254;4.490;2023-06-26T07:34:14;4.57;;;0.45;;
31004;SDS011;17676;52.254;4.490;2023-06-26T07:36:39;3.15;;;0.28;;
31004;SDS011;17676;52.254;4.490;2023-06-26T07:39:13;3.53;;;0.43;;
31004;SDS011;17676;52.254;4.490;2023-06-26T07:41:38;4.93;;;0.32;;
31004;SDS011;17676;52.254;4.490;2023-06-26T07:44:04;5.70;;;0.65;;
31004;SDS011;17676;52.254;4.490;2023-06-26T07:46:29;2.65;;;0.25;;
31004;SDS011;17676;52.254;4.490;2023-06-26T07:48:55;2.20;;;0.30;;
31004;SDS011;17676;52.254;4.490;2023-06-26T07:51:20;3.10;;;0.40;;
31004;SDS011;17676;52.254;4.490;2023-06-26T07:53:46;1.80;;;0.20;;
31004;SDS011;17676;52.254;4.490;2023-06-26T07:56:12;1.95;;;0.20;;
31004;SDS011;17676;52.254;4.490;2023-06-26T07:58:37;2.83;;;0.30;;
31004;SDS011;17676;52.254;4.490;2023-06-26T08:01:03;4.10;;;0.30;;
31004;SDS011;17676;52.254;4.490;2023-06-26T08:03:28;4.43;;;0.30;;
31004;SDS011;17676;52.254;4.490;2023-06-26T08:05:53;6.07;;;0.25;;
31004;SDS011;17676;52.254;4.490;2023-06-26T08:08:19;3.35;;;0.30;;
31004;SDS011;17676;52.254;4.490;2023-06-26T08:10:44;2.67;;;0.28;;
31004;SDS011;17676;52.254;4.490;2023-06-26T08:13:10;4.43;;;0.30;;
31004;SDS011;17676;52.254;4.490;2023-06-26T08:15:35;3.40;;;0.30;;
31004;SDS011;17676;52.254;4.490;2023-06-26T08:18:01;4.03;;;0.30;;
31004;SDS011;17676;52.254;4.490;2023-06-26T08:20:26;4.85;;;0.45;;
31004;SDS011;17676;52.254;4.490;2023-06-26T08:22:53;4.10;;;0.40;;
31004;SDS011;17676;52.254;4.490;2023-06-26T08:25:19;3.75;;;0.30;;
31004;SDS011;17676;52.254;4.490;2023-06-26T08:27:45;2.65;;;0.40;;
31004;SDS011;17676;52.254;4.490;2023-06-26T08:30:10;2.78;;;0.30;;
31004;SDS011;17676;52.254;4.490;2023-06-26T08:32:36;2.22;;;0.20;;
31004;SDS011;17676;52.254;4.490;2023-06-26T08:35:01;1.08;;;0.20;;
31004;SDS011;17676;52.254;4.490;2023-06-26T08:37:29;2.33;;;0.20;;
31004;SDS011;17676;52.254;4.490;2023-06-26T08:39:57;2.35;;;0.20;;
31004;SDS011;17676;52.254;4.490;2023-06-26T08:42:24;3.25;;;0.50;;
31004;SDS011;17676;52.254;4.490;2023-06-26T08:44:49;2.85;;;0.30;;
31004;SDS011;17676;52.254;4.490;2023-06-26T08:47:15;4.68;;;0.30;;
31004;SDS011;17676;52.254;4.490;2023-06-26T08:49:58;1.75;;;0.30;;
31004;SDS011;17676;52.254;4.490;2023-06-26T08:52:30;2.92;;;0.38;;
31004;SDS011;17676;52.254;4.490;2023-06-26T08:54:59;1.75;;;0.52;;
31004;SDS011;17676;52.254;4.490;2023-06-26T08:57:26;6.65;;;0.40;;
31004;SDS011;17676;52.254;4.490;2023-06-26T08:59:53;3.92;;;0.30;;
31004;SDS011;17676;52.254;4.490;2023-06-26T09:02:18;4.68;;;0.40;;
31004;SDS011;17676;52.254;4.490;2023-06-26T09:04:46;5.07;;;0.43;;
31004;SDS011;17676;52.254;4.490;2023-06-26T09:07:13;4.40;;;0.30;;
31004;SDS011;17676;52.254;4.490;2023-06-26T09:09:38;3.70;;;0.30;;
31004;SDS011;17676;52.254;4.490;2023-06-26T09:12:04;2.60;;;0.20;;
31004;SDS011;17676;52.254;4.490;2023-06-26T09:14:30;4.65;;;0.20;;
31004;SDS011;17676;52.254;4.490;2023-06-26T09:16:55;7.93;;;0.35;;
31004;SDS011;17676;52.254;4.490;2023-06-26T09:19:21;2.78;;;0.30;;
31004;SDS011;17676;52.254;4.490;2023-06-26T09:21:49;3.58;;;0.40;;
31004;SDS011;17676;52.254;4.490;2023-06-26T09:24:15;3.33;;;0.30;;
31004;SDS011;17676;52.254;4.490;2023-06-26T09:26:41;3.42;;;0.35;;
31004;SDS011;17676;52.254;4.490;2023-06-26T09:29:08;2.58;;;0.30;;
31004;SDS011;17676;52.254;4.490;2023-06-26T09:31:37;4.10;;;0.30;;
31004;SDS011;17676;52.254;4.490;2023-06-26T09:34:03;3.90;;;0.22;;
31004;SDS011;17676;52.254;4.490;2023-06-26T09:36:30;6.30;;;0.30;;
31004;SDS011;17676;52.254;4.490;2023-06-26T09:39:00;2.03;;;0.20;;
31004;SDS011;17676;52.254;4.490;2023-06-26T09:41:26;2.30;;;0.32;;
31004;SDS011;17676;52.254;4.490;2023-06-26T09:43:52;2.42;;;0.30;;
31004;SDS011;17676;52.254;4.490;2023-06-26T09:48:57;1.90;;;0.30;;
31004;SDS011;17676;52.254;4.490;2023-06-26T09:51:29;2.03;;;0.20;;
31004;SDS011;17676;52.254;4.490;2023-06-26T09:54:02;4.70;;;0.35;;
31004;SDS011;17676;52.254;4.490;2023-06-26T09:56:29;1.63;;;0.20;;
31004;SDS011;17676;52.254;4.490;2023-06-26T09:58:56;1.65;;;0.30;;
31004;SDS011;17676;52.254;4.490;2023-06-26T10:01:26;5.93;;;0.93;;
31004;SDS011;17676;52.254;4.490;2023-06-26T10:03:52;2.85;;;0.30;;
31004;SDS011;17676;52.254;4.490;2023-06-26T10:06:26;3.03;;;0.47;;
31004;SDS011;17676;52.254;4.490;2023-06-26T10:08:53;4.40;;;0.30;;
31004;SDS011;17676;52.254;4.490;2023-06-26T10:11:21;2.15;;;0.22;;
31004;SDS011;17676;52.254;4.490;2023-06-26T10:13:49;4.55;;;0.30;;
31004;SDS011;17676;52.254;4.490;2023-06-26T10:16:18;3.25;;;0.20;;
31004;SDS011;17676;52.254;4.490;2023-06-26T10:18:56;4.10;;;0.32;;
31004;SDS011;17676;52.254;4.490;2023-06-26T10:21:31;1.70;;;0.20;;
31004;SDS011;17676;52.254;4.490;2023-06-26T10:24:00;1.20;;;0.30;;
31004;SDS011;17676;52.254;4.490;2023-06-26T10:26:28;4.10;;;0.30;;
31004;SDS011;17676;52.254;4.490;2023-06-26T10:28:54;4.72;;;0.30;;
31004;SDS011;17676;52.254;4.490;2023-06-26T10:31:27;4.57;;;0.25;;
31004;SDS011;17676;52.254;4.490;2023-06-26T10:33:54;5.30;;;0.28;;
31004;SDS011;17676;52.254;4.490;2023-06-26T10:36:26;2.90;;;0.20;;
31004;SDS011;17676;52.254;4.490;2023-06-26T10:38:57;3.97;;;0.28;;
31004;SDS011;17676;52.254;4.490;2023-06-26T10:41:27;1.83;;;0.20;;
31004;SDS011;17676;52.254;4.490;2023-06-26T10:46:24;4.45;;;0.30;;
31004;SDS011;17676;52.254;4.490;2023-06-26T10:48:56;1.52;;;0.30;;
31004;SDS011;17676;52.254;4.490;2023-06-26T10:51:26;2.05;;;0.28;;
31004;SDS011;17676;52.254;4.490;2023-06-26T10:53:55;5.43;;;0.43;;
31004;SDS011;17676;52.254;4.490;2023-06-26T10:56:41;3.72;;;0.20;;
31004;SDS011;17676;52.254;4.490;2023-06-26T10:59:24;3.35;;;0.45;;
31004;SDS011;17676;52.254;4.490;2023-06-26T11:02:00;2.78;;;0.30;;
31004;SDS011;17676;52.254;4.490;2023-06-26T11:07:14;2.20;;;0.20;;
31004;SDS011;17676;52.254;4.490;2023-06-26T11:09:53;2.53;;;0.40;;
31004;SDS011;17676;52.254;4.490;2023-06-26T11:12:35;3.97;;;0.20;;
31004;SDS011;17676;52.254;4.490;2023-06-26T11:15:03;3.00;;;0.20;;
31004;SDS011;17676;52.254;4.490;2023-06-26T11:17:32;1.75;;;0.20;;
31004;SDS011;17676;52.254;4.490;2023-06-26T11:19:59;4.85;;;0.30;;
31004;SDS011;17676;52.254;4.490;2023-06-26T11:22:25;3.60;;;0.40;;
31004;SDS011;17676;52.254;4.490;2023-06-26T11:24:53;4.97;;;0.35;;
31004;SDS011;17676;52.254;4.490;2023-06-26T11:27:19;3.38;;;0.20;;
31004;SDS011;17676;52.254;4.490;2023-06-26T11:29:48;4.00;;;0.63;;
31004;SDS011;17676;52.254;4.490;2023-06-26T11:32:17;2.45;;;0.20;;
31004;SDS011;17676;52.254;4.490;2023-06-26T11:34:43;2.55;;;0.30;;
31004;SDS011;17676;52.254;4.490;2023-06-26T11:37:09;4.32;;;0.32;;
31004;SDS011;17676;52.254;4.490;2023-06-26T11:39:34;1.30;;;0.20;;
31004;SDS011;17676;52.254;4.490;2023-06-26T11:42:02;2.40;;;0.20;;
31004;SDS011;17676;52.254;4.490;2023-06-26T11:44:31;3.30;;;0.20;;
31004;SDS011;17676;52.254;4.490;2023-06-26T11:47:04;2.63;;;0.40;;
31004;SDS011;17676;52.254;4.490;2023-06-26T11:49:30;3.40;;;0.30;;
31004;SDS011;17676;52.254;4.490;2023-06-26T11:51:56;1.40;;;0.25;;
31004;SDS011;17676;52.254;4.490;2023-06-26T11:54:25;2.42;;;0.30;;
31004;SDS011;17676;52.254;4.490;2023-06-26T11:56:56;4.93;;;0.40;;
31004;SDS011;17676;52.254;4.490;2023-06-26T11:59:23;3.58;;;0.30;;
31004;SDS011;17676;52.254;4.490;2023-06-26T12:01:50;4.85;;;0.40;;
31004;SDS011;17676;52.254;4.490;2023-06-26T12:04:17;7.28;;;0.45;;
31004;SDS011;17676;52.254;4.490;2023-06-26T12:06:45;2.63;;;0.30;;
31004;SDS011;17676;52.254;4.490;2023-06-26T12:09:15;2.60;;;0.20;;
31004;SDS011;17676;52.254;4.490;2023-06-26T12:11:43;2.72;;;0.30;;
31004;SDS011;17676;52.254;4.490;2023-06-26T12:14:13;2.10;;;0.25;;
31004;SDS011;17676;52.254;4.490;2023-06-26T12:16:39;2.83;;;0.32;;
31004;SDS011;17676;52.254;4.490;2023-06-26T12:19:07;1.80;;;0.30;;
31004;SDS011;17676;52.254;4.490;2023-06-26T12:23:59;4.35;;;0.28;;
31004;SDS011;17676;52.254;4.490;2023-06-26T12:26:25;3.90;;;0.25;;
31004;SDS011;17676;52.254;4.490;2023-06-26T12:28:52;2.65;;;0.38;;
31004;SDS011;17676;52.254;4.490;2023-06-26T12:31:20;4.47;;;0.30;;
31004;SDS011;17676;52.254;4.490;2023-06-26T12:33:47;2.67;;;0.25;;
31004;SDS011;17676;52.254;4.490;2023-06-26T12:36:14;3.72;;;0.50;;
31004;SDS011;17676;52.254;4.490;2023-06-26T12:38:44;3.60;;;0.30;;
31004;SDS011;17676;52.254;4.490;2023-06-26T12:41:14;1.42;;;0.40;;
31004;SDS011;17676;52.254;4.490;2023-06-26T12:43:39;1.70;;;0.25;;
31004;SDS011;17676;52.254;4.490;2023-06-26T12:46:05;4.78;;;0.40;;
31004;SDS011;17676;52.254;4.490;2023-06-26T12:48:38;2.60;;;0.22;;
31004;SDS011;17676;52.254;4.490;2023-06-26T12:51:11;2.55;;;0.30;;
31004;SDS011;17676;52.254;4.490;2023-06-26T12:53:38;5.15;;;0.30;;
31004;SDS011;17676;52.254;4.490;2023-06-26T12:56:07;4.78;;;0.30;;
31004;SDS011;17676;52.254;4.490;2023-06-26T12:58:33;6.07;;;0.30;;
31004;SDS011;17676;52.254;4.490;2023-06-26T13:01:03;1.52;;;0.30;;
31004;SDS011;17676;52.254;4.490;2023-06-26T13:03:29;3.35;;;0.40;;
31004;SDS011;17676;52.254;4.490;2023-06-26T13:05:55;1.98;;;0.32;;
31004;SDS011;17676;52.254;4.490;2023-06-26T13:08:22;2.42;;;0.30;;
31004;SDS011;17676;52.254;4.490;2023-06-26T13:10:48;2.28;;;0.40;;
31004;SDS011;17676;52.254;4.490;2023-06-26T13:13:14;2.88;;;0.40;;
31004;SDS011;17676;52.254;4.490;2023-06-26T13:15:40;2.80;;;0.43;;
31004;SDS011;17676;52.254;4.490;2023-06-26T13:18:06;4.53;;;0.30;;
31004;SDS011;17676;52.254;4.490;2023-06-26T13:20:31;3.92;;;0.30;;
31004;SDS011;17676;52.254;4.490;2023-06-26T13:22:57;4.32;;;0.50;;
31004;SDS011;17676;52.254;4.490;2023-06-26T13:25:22;1.38;;;0.30;;
31004;SDS011;17676;52.254;4.490;2023-06-26T13:27:50;4.43;;;0.70;;
31004;SDS011;17676;52.254;4.490;2023-06-26T13:30:16;4.85;;;0.50;;
31004;SDS011;17676;52.254;4.490;2023-06-26T13:32:43;2.55;;;0.50;;
31004;SDS011;17676;52.254;4.490;2023-06-26T13:35:08;3.20;;;0.73;;
31004;SDS011;17676;52.254;4.490;2023-06-26T13:37:34;3.05;;;0.30;;
31004;SDS011;17676;52.254;4.490;2023-06-26T13:40:01;4.43;;;0.30;;
31004;SDS011;17676;52.254;4.490;2023-06-26T13:42:28;4.20;;;0.40;;
31004;SDS011;17676;52.254;4.490;2023-06-26T13:44:53;5.63;;;0.45;;
31004;SDS011;17676;52.254;4.490;2023-06-26T13:47:19;3.17;;;0.50;;
31004;SDS011;17676;52.254;4.490;2023-06-26T13:49:45;3.83;;;0.50;;
31004;SDS011;17676;52.254;4.490;2023-06-26T13:52:10;5.13;;;0.70;;
31004;SDS011;17676;52.254;4.490;2023-06-26T13:54:36;4.75;;;0.60;;
31004;SDS011;17676;52.254;4.490;2023-06-26T13:57:04;5.43;;;0.57;;
31004;SDS011;17676;52.254;4.490;2023-06-26T13:59:30;4.90;;;0.45;;
31004;SDS011;17676;52.254;4.490;2023-06-26T14:01:56;4.90;;;0.40;;
31004;SDS011;17676;52.254;4.490;2023-06-26T14:04:22;3.08;;;0.93;;
31004;SDS011;17676;52.254;4.490;2023-06-26T14:06:47;3.05;;;0.32;;
31004;SDS011;17676;52.254;4.490;2023-06-26T14:09:15;4.70;;;0.50;;
31004;SDS011;17676;52.254;4.490;2023-06-26T14:11:41;7.65;;;0.75;;
31004;SDS011;17676;52.254;4.490;2023-06-26T14:14:06;4.90;;;0.50;;
31004;SDS011;17676;52.254;4.490;2023-06-26T14:16:32;2.10;;;0.40;;
31004;SDS011;17676;52.254;4.490;2023-06-26T14:18:58;4.25;;;0.45;;
31004;SDS011;17676;52.254;4.490;2023-06-26T14:21:23;7.65;;;0.45;;
31004;SDS011;17676;52.254;4.490;2023-06-26T14:23:49;3.03;;;0.40;;
31004;SDS011;17676;52.254;4.490;2023-06-26T14:26:14;3.35;;;0.50;;
31004;SDS011;17676;52.254;4.490;2023-06-26T14:28:40;3.03;;;0.30;;
31004;SDS011;17676;52.254;4.490;2023-06-26T14:31:05;4.47;;;0.40;;
31004;SDS011;17676;52.254;4.490;2023-06-26T14:33:31;4.88;;;0.68;;
31004;SDS011;17676;52.254;4.490;2023-06-26T14:35:56;5.45;;;0.50;;
31004;SDS011;17676;52.254;4.490;2023-06-26T14:38:22;5.70;;;0.50;;
31004;SDS011;17676;52.254;4.490;2023-06-26T14:40:47;5.05;;;0.50;;
31004;SDS011;17676;52.254;4.490;2023-06-26T14:43:15;4.43;;;0.40;;
31004;SDS011;17676;52.254;4.490;2023-06-26T14:45:41;7.60;;;0.60;;
31004;SDS011;17676;52.254;4.490;2023-06-26T14:48:07;3.22;;;0.50;;
31004;SDS011;17676;52.254;4.490;2023-06-26T14:50:32;2.20;;;0.40;;
31004;SDS011;17676;52.254;4.490;2023-06-26T14:52:58;4.63;;;0.50;;
31004;SDS011;17676;52.254;4.490;2023-06-26T14:55:24;3.67;;;0.50;;